sensor_id;sensor_type;location;lat;lon;timestamp;temperature;humidity
6307;DHT22;3186;54.062;9.962;2023-05-10T00:00:21;16.10;1.00
6307;DHT22;3186;54.062;9.962;2023-05-10T00:02:49;16.00;1.00
6307;DHT22;3186;54.062;9.962;2023-05-10T00:05:15;16.10;1.00
6307;DHT22;3186;54.062;9.962;2023-05-10T00:07:41;16.10;1.00
6307;DHT22;3186;54.062;9.962;2023-05-10T00:10:10;16.10;1.00
6307;DHT22;3186;54.062;9.962;2023-05-10T00:12:36;16.10;1.00
6307;DHT22;3186;54.062;9.962;2023-05-10T00:15:02;16.10;1.00
6307;DHT22;3186;54.062;9.962;2023-05-10T00:17:28;16.20;1.00
6307;DHT22;3186;54.062;9.962;2023-05-10T00:19:54;16.00;1.00
6307;DHT22;3186;54.062;9.962;2023-05-10T00:22:20;16.00;1.00
6307;DHT22;3186;54.062;9.962;2023-05-10T00:24:46;16.00;1.00
6307;DHT22;3186;54.062;9.962;2023-05-10T00:27:12;16.00;1.00
6307;DHT22;3186;54.062;9.962;2023-05-10T00:29:38;16.10;1.00
6307;DHT22;3186;54.062;9.962;2023-05-10T00:32:04;16.00;1.00
6307;DHT22;3186;54.062;9.962;2023-05-10T00:34:30;16.00;1.00
6307;DHT22;3186;54.062;9.962;2023-05-10T00:36:56;16.00;1.00
6307;DHT22;3186;54.062;9.962;2023-05-10T00:39:22;15.90;1.00
6307;DHT22;3186;54.062;9.962;2023-05-10T00:41:48;15.90;1.00
6307;DHT22;3186;54.062;9.962;2023-05-10T00:44:15;15.80;1.00
6307;DHT22;3186;54.062;9.962;2023-05-10T00:46:41;15.80;1.00
6307;DHT22;3186;54.062;9.962;2023-05-10T00:49:07;15.80;1.00
6307;DHT22;3186;54.062;9.962;2023-05-10T00:51:33;15.80;1.00
6307;DHT22;3186;54.062;9.962;2023-05-10T00:53:59;15.80;1.00
6307;DHT22;3186;54.062;9.962;2023-05-10T00:56:26;15.80;1.00
6307;DHT22;3186;54.062;9.962;2023-05-10T00:58:53;15.70;1.00
6307;DHT22;3186;54.062;9.962;2023-05-10T01:01:19;15.70;1.00
6307;DHT22;3186;54.062;9.962;2023-05-10T01:03:46;15.70;1.00
6307;DHT22;3186;54.062;9.962;2023-05-10T01:06:12;15.70;1.00
6307;DHT22;3186;54.062;9.962;2023-05-10T01:08:39;15.70;1.00
6307;DHT22;3186;54.062;9.962;2023-05-10T01:11:05;15.60;1.00
6307;DHT22;3186;54.062;9.962;2023-05-10T01:13:35;15.50;1.00
6307;DHT22;3186;54.062;9.962;2023-05-10T01:16:03;15.60;1.00
6307;DHT22;3186;54.062;9.962;2023-05-10T01:18:38;15.50;1.00
6307;DHT22;3186;54.062;9.962;2023-05-10T01:27:01;15.50;1.00
6307;DHT22;3186;54.062;9.962;2023-05-10T01:35:22;15.40;1.00
6307;DHT22;3186;54.062;9.962;2023-05-10T01:38:19;15.40;1.00
6307;DHT22;3186;54.062;9.962;2023-05-10T01:40:51;15.30;1.00
6307;DHT22;3186;54.062;9.962;2023-05-10T01:43:21;15.30;1.00
6307;DHT22;3186;54.062;9.962;2023-05-10T01:46:10;15.30;1.00
6307;DHT22;3186;54.062;9.962;2023-05-10T01:48:52;15.20;1.00
6307;DHT22;3186;54.062;9.962;2023-05-10T01:51:29;15.20;1.00
6307;DHT22;3186;54.062;9.962;2023-05-10T01:54:01;15.20;1.00
6307;DHT22;3186;54.062;9.962;2023-05-10T01:56:30;15.10;1.00
6307;DHT22;3186;54.062;9.962;2023-05-10T01:58:57;15.10;1.00
6307;DHT22;3186;54.062;9.962;2023-05-10T02:01:25;15.10;1.00
6307;DHT22;3186;54.062;9.962;2023-05-10T02:03:51;15.10;1.00
6307;DHT22;3186;54.062;9.962;2023-05-10T02:06:20;15.00;1.00
6307;DHT22;3186;54.062;9.962;2023-05-10T02:08:49;15.00;1.00
6307;DHT22;3186;54.062;9.962;2023-05-10T02:11:17;14.90;1.00
6307;DHT22;3186;54.062;9.962;2023-05-10T02:13:45;15.00;1.00
6307;DHT22;3186;54.062;9.962;2023-05-10T02:16:13;14.90;1.00
6307;DHT22;3186;54.062;9.962;2023-05-10T02:18:40;14.90;1.00
6307;DHT22;3186;54.062;9.962;2023-05-10T02:21:08;14.90;1.00
6307;DHT22;3186;54.062;9.962;2023-05-10T02:23:39;14.90;1.00
6307;DHT22;3186;54.062;9.962;2023-05-10T02:26:06;14.80;1.00
6307;DHT22;3186;54.062;9.962;2023-05-10T02:28:32;14.80;1.00
6307;DHT22;3186;54.062;9.962;2023-05-10T02:30:59;14.80;1.00
6307;DHT22;3186;54.062;9.962;2023-05-10T02:33:25;14.80;1.00
6307;DHT22;3186;54.062;9.962;2023-05-10T02:35:52;14.70;1.00
6307;DHT22;3186;54.062;9.962;2023-05-10T02:38:20;14.70;1.00
6307;DHT22;3186;54.062;9.962;2023-05-10T02:40:47;14.70;1.00
6307;DHT22;3186;54.062;9.962;2023-05-10T02:43:16;14.70;1.00
6307;DHT22;3186;54.062;9.962;2023-05-10T02:45:43;14.70;1.00
6307;DHT22;3186;54.062;9.962;2023-05-10T02:48:12;14.60;1.00
6307;DHT22;3186;54.062;9.962;2023-05-10T02:50:42;14.60;1.00
6307;DHT22;3186;54.062;9.962;2023-05-10T02:53:14;14.60;1.00
6307;DHT22;3186;54.062;9.962;2023-05-10T02:55:44;14.60;1.00
6307;DHT22;3186;54.062;9.962;2023-05-10T02:58:10;14.50;1.00
6307;DHT22;3186;54.062;9.962;2023-05-10T03:00:36;14.50;1.00
6307;DHT22;3186;54.062;9.962;2023-05-10T03:03:02;14.50;1.00
6307;DHT22;3186;54.062;9.962;2023-05-10T03:05:28;14.40;1.00
6307;DHT22;3186;54.062;9.962;2023-05-10T03:07:56;14.40;1.00
6307;DHT22;3186;54.062;9.962;2023-05-10T03:10:27;14.40;1.00
6307;DHT22;3186;54.062;9.962;2023-05-10T03:16:27;14.40;1.00
6307;DHT22;3186;54.062;9.962;2023-05-10T03:18:58;14.40;1.00
6307;DHT22;3186;54.062;9.962;2023-05-10T03:21:29;14.30;1.00
6307;DHT22;3186;54.062;9.962;2023-05-10T03:24:08;14.30;1.00
6307;DHT22;3186;54.062;9.962;2023-05-10T03:26:38;14.30;1.00
6307;DHT22;3186;54.062;9.962;2023-05-10T03:29:10;14.30;1.00
6307;DHT22;3186;54.062;9.962;2023-05-10T03:31:38;14.20;1.00
6307;DHT22;3186;54.062;9.962;2023-05-10T03:34:04;14.20;1.00
6307;DHT22;3186;54.062;9.962;2023-05-10T03:36:30;14.20;1.00
6307;DHT22;3186;54.062;9.962;2023-05-10T03:38:57;14.20;1.00
6307;DHT22;3186;54.062;9.962;2023-05-10T03:41:23;14.10;1.00
6307;DHT22;3186;54.062;9.962;2023-05-10T03:43:51;14.10;1.00
6307;DHT22;3186;54.062;9.962;2023-05-10T03:46:17;14.10;1.00
6307;DHT22;3186;54.062;9.962;2023-05-10T03:48:44;14.10;1.00
6307;DHT22;3186;54.062;9.962;2023-05-10T03:51:10;14.00;1.00
6307;DHT22;3186;54.062;9.962;2023-05-10T03:53:37;14.00;1.00
6307;DHT22;3186;54.062;9.962;2023-05-10T03:56:03;14.00;1.00
6307;DHT22;3186;54.062;9.962;2023-05-10T03:58:29;13.90;1.00
6307;DHT22;3186;54.062;9.962;2023-05-10T04:00:55;13.90;1.00
6307;DHT22;3186;54.062;9.962;2023-05-10T04:03:21;13.90;1.00
6307;DHT22;3186;54.062;9.962;2023-05-10T04:05:47;13.90;1.00
6307;DHT22;3186;54.062;9.962;2023-05-10T04:08:13;13.90;1.00
6307;DHT22;3186;54.062;9.962;2023-05-10T04:10:40;13.90;1.00
6307;DHT22;3186;54.062;9.962;2023-05-10T04:13:06;13.90;1.00
6307;DHT22;3186;54.062;9.962;2023-05-10T04:15:32;13.80;1.00
6307;DHT22;3186;54.062;9.962;2023-05-10T04:17:58;13.80;1.00
6307;DHT22;3186;54.062;9.962;2023-05-10T04:20:23;13.70;1.00
6307;DHT22;3186;54.062;9.962;2023-05-10T04:22:49;13.70;1.00
6307;DHT22;3186;54.062;9.962;2023-05-10T04:25:15;13.70;1.00
6307;DHT22;3186;54.062;9.962;2023-05-10T04:27:41;13.70;1.00
6307;DHT22;3186;54.062;9.962;2023-05-10T04:30:07;13.70;1.00
6307;DHT22;3186;54.062;9.962;2023-05-10T04:32:33;13.60;1.00
6307;DHT22;3186;54.062;9.962;2023-05-10T04:34:59;13.70;1.00
6307;DHT22;3186;54.062;9.962;2023-05-10T04:37:25;13.70;1.00
6307;DHT22;3186;54.062;9.962;2023-05-10T04:39:50;13.70;1.00
6307;DHT22;3186;54.062;9.962;2023-05-10T04:42:16;13.60;1.00
6307;DHT22;3186;54.062;9.962;2023-05-10T04:44:42;13.60;1.00
6307;DHT22;3186;54.062;9.962;2023-05-10T04:47:09;13.70;1.00
6307;DHT22;3186;54.062;9.962;2023-05-10T04:49:34;13.60;1.00
6307;DHT22;3186;54.062;9.962;2023-05-10T04:52:00;13.60;1.00
6307;DHT22;3186;54.062;9.962;2023-05-10T04:54:26;13.60;1.00
6307;DHT22;3186;54.062;9.962;2023-05-10T04:56:52;13.60;1.00
6307;DHT22;3186;54.062;9.962;2023-05-10T04:59:17;13.60;1.00
6307;DHT22;3186;54.062;9.962;2023-05-10T05:01:43;13.60;1.00
6307;DHT22;3186;54.062;9.962;2023-05-10T05:04:09;13.70;1.00
6307;DHT22;3186;54.062;9.962;2023-05-10T05:06:35;13.60;1.00
6307;DHT22;3186;54.062;9.962;2023-05-10T05:09:01;13.60;1.00
6307;DHT22;3186;54.062;9.962;2023-05-10T05:11:27;13.60;1.00
6307;DHT22;3186;54.062;9.962;2023-05-10T05:13:52;13.60;1.00
6307;DHT22;3186;54.062;9.962;2023-05-10T05:16:18;13.70;1.00
6307;DHT22;3186;54.062;9.962;2023-05-10T05:18:44;13.70;1.00
6307;DHT22;3186;54.062;9.962;2023-05-10T05:21:17;13.60;1.00
6307;DHT22;3186;54.062;9.962;2023-05-10T05:23:43;13.70;1.00
6307;DHT22;3186;54.062;9.962;2023-05-10T05:26:09;13.70;1.00
6307;DHT22;3186;54.062;9.962;2023-05-10T05:28:36;12.50;1.00
6307;DHT22;3186;54.062;9.962;2023-05-10T05:31:06;13.70;1.00
6307;DHT22;3186;54.062;9.962;2023-05-10T05:33:33;13.80;1.00
6307;DHT22;3186;54.062;9.962;2023-05-10T05:36:03;13.80;1.00
6307;DHT22;3186;54.062;9.962;2023-05-10T05:38:30;13.90;1.00
6307;DHT22;3186;54.062;9.962;2023-05-10T05:40:56;14.00;1.00
6307;DHT22;3186;54.062;9.962;2023-05-10T05:43:22;14.00;1.00
6307;DHT22;3186;54.062;9.962;2023-05-10T05:45:48;14.10;1.00
6307;DHT22;3186;54.062;9.962;2023-05-10T05:48:13;14.20;1.00
6307;DHT22;3186;54.062;9.962;2023-05-10T05:50:39;14.30;1.00
6307;DHT22;3186;54.062;9.962;2023-05-10T05:53:05;14.40;1.00
6307;DHT22;3186;54.062;9.962;2023-05-10T05:55:31;14.40;1.00
6307;DHT22;3186;54.062;9.962;2023-05-10T05:57:57;14.60;1.00
6307;DHT22;3186;54.062;9.962;2023-05-10T06:00:23;14.70;1.00
6307;DHT22;3186;54.062;9.962;2023-05-10T06:02:49;14.80;1.00
6307;DHT22;3186;54.062;9.962;2023-05-10T06:05:15;14.80;1.00
6307;DHT22;3186;54.062;9.962;2023-05-10T06:07:41;14.90;1.00
6307;DHT22;3186;54.062;9.962;2023-05-10T06:10:10;15.00;1.00
6307;DHT22;3186;54.062;9.962;2023-05-10T06:12:36;15.10;1.00
6307;DHT22;3186;54.062;9.962;2023-05-10T06:15:02;15.20;1.00
6307;DHT22;3186;54.062;9.962;2023-05-10T06:17:28;15.20;1.00
6307;DHT22;3186;54.062;9.962;2023-05-10T06:19:54;15.30;1.00
6307;DHT22;3186;54.062;9.962;2023-05-10T06:22:20;15.40;1.00
6307;DHT22;3186;54.062;9.962;2023-05-10T06:24:48;15.50;1.00
6307;DHT22;3186;54.062;9.962;2023-05-10T06:27:14;15.60;1.00
6307;DHT22;3186;54.062;9.962;2023-05-10T06:29:40;15.70;1.00
6307;DHT22;3186;54.062;9.962;2023-05-10T06:32:06;15.80;1.00
6307;DHT22;3186;54.062;9.962;2023-05-10T06:34:32;15.80;1.00
6307;DHT22;3186;54.062;9.962;2023-05-10T06:36:57;16.00;1.00
6307;DHT22;3186;54.062;9.962;2023-05-10T06:39:23;16.10;1.00
6307;DHT22;3186;54.062;9.962;2023-05-10T06:41:49;16.30;1.00
6307;DHT22;3186;54.062;9.962;2023-05-10T06:44:15;16.50;1.00
6307;DHT22;3186;54.062;9.962;2023-05-10T06:46:41;16.50;1.00
6307;DHT22;3186;54.062;9.962;2023-05-10T06:49:07;16.60;1.00
6307;DHT22;3186;54.062;9.962;2023-05-10T06:51:33;16.90;1.00
6307;DHT22;3186;54.062;9.962;2023-05-10T06:53:59;17.10;1.00
6307;DHT22;3186;54.062;9.962;2023-05-10T06:56:25;17.20;1.00
6307;DHT22;3186;54.062;9.962;2023-05-10T06:58:51;17.20;1.00
6307;DHT22;3186;54.062;9.962;2023-05-10T07:01:17;17.40;1.00
6307;DHT22;3186;54.062;9.962;2023-05-10T07:03:43;17.50;1.00
6307;DHT22;3186;54.062;9.962;2023-05-10T07:06:08;17.70;1.00
6307;DHT22;3186;54.062;9.962;2023-05-10T07:08:34;17.70;1.00
6307;DHT22;3186;54.062;9.962;2023-05-10T07:11:01;17.80;1.00
6307;DHT22;3186;54.062;9.962;2023-05-10T07:13:30;17.90;1.00
6307;DHT22;3186;54.062;9.962;2023-05-10T07:15:56;17.90;1.00
6307;DHT22;3186;54.062;9.962;2023-05-10T07:18:21;17.90;1.00
6307;DHT22;3186;54.062;9.962;2023-05-10T07:20:47;18.10;1.00
6307;DHT22;3186;54.062;9.962;2023-05-10T07:23:13;18.20;1.00
6307;DHT22;3186;54.062;9.962;2023-05-10T07:25:39;18.30;1.00
6307;DHT22;3186;54.062;9.962;2023-05-10T07:28:05;18.50;1.00
6307;DHT22;3186;54.062;9.962;2023-05-10T07:30:30;18.40;1.00
6307;DHT22;3186;54.062;9.962;2023-05-10T07:32:56;18.30;1.00
6307;DHT22;3186;54.062;9.962;2023-05-10T07:35:22;18.40;1.00
6307;DHT22;3186;54.062;9.962;2023-05-10T07:37:48;18.60;1.00
6307;DHT22;3186;54.062;9.962;2023-05-10T07:40:14;18.80;1.00
6307;DHT22;3186;54.062;9.962;2023-05-10T07:42:39;18.90;1.00
6307;DHT22;3186;54.062;9.962;2023-05-10T07:45:06;18.90;1.00
6307;DHT22;3186;54.062;9.962;2023-05-10T07:47:32;18.90;1.00
6307;DHT22;3186;54.062;9.962;2023-05-10T07:49:57;19.30;1.00
6307;DHT22;3186;54.062;9.962;2023-05-10T07:52:23;19.20;1.00
6307;DHT22;3186;54.062;9.962;2023-05-10T07:54:49;19.20;1.00
6307;DHT22;3186;54.062;9.962;2023-05-10T07:57:15;19.60;1.00
6307;DHT22;3186;54.062;9.962;2023-05-10T07:59:43;19.70;1.00
6307;DHT22;3186;54.062;9.962;2023-05-10T08:02:10;20.00;1.00
6307;DHT22;3186;54.062;9.962;2023-05-10T08:04:35;20.20;1.00
6307;DHT22;3186;54.062;9.962;2023-05-10T08:07:01;20.10;1.00
6307;DHT22;3186;54.062;9.962;2023-05-10T08:09:27;20.00;1.00
6307;DHT22;3186;54.062;9.962;2023-05-10T08:11:53;20.20;1.00
6307;DHT22;3186;54.062;9.962;2023-05-10T08:14:18;20.00;1.00
6307;DHT22;3186;54.062;9.962;2023-05-10T08:16:45;20.10;1.00
6307;DHT22;3186;54.062;9.962;2023-05-10T08:19:10;20.40;1.00
6307;DHT22;3186;54.062;9.962;2023-05-10T08:21:36;20.30;1.00
6307;DHT22;3186;54.062;9.962;2023-05-10T08:24:03;20.50;1.00
6307;DHT22;3186;54.062;9.962;2023-05-10T08:26:28;20.60;1.00
6307;DHT22;3186;54.062;9.962;2023-05-10T08:28:54;20.80;1.00
6307;DHT22;3186;54.062;9.962;2023-05-10T08:31:21;21.00;1.00
6307;DHT22;3186;54.062;9.962;2023-05-10T08:33:47;21.00;1.00
6307;DHT22;3186;54.062;9.962;2023-05-10T08:36:13;21.00;1.00
6307;DHT22;3186;54.062;9.962;2023-05-10T08:38:40;21.10;1.00
6307;DHT22;3186;54.062;9.962;2023-05-10T08:41:06;21.20;1.00
6307;DHT22;3186;54.062;9.962;2023-05-10T08:43:32;21.30;1.00
6307;DHT22;3186;54.062;9.962;2023-05-10T08:46:00;21.50;1.00
6307;DHT22;3186;54.062;9.962;2023-05-10T08:48:29;21.50;1.00
6307;DHT22;3186;54.062;9.962;2023-05-10T08:50:58;21.70;1.00
6307;DHT22;3186;54.062;9.962;2023-05-10T08:53:24;21.60;1.00
6307;DHT22;3186;54.062;9.962;2023-05-10T08:55:52;21.70;1.00
6307;DHT22;3186;54.062;9.962;2023-05-10T08:58:19;21.70;1.00
6307;DHT22;3186;54.062;9.962;2023-05-10T09:00:46;22.10;1.00
6307;DHT22;3186;54.062;9.962;2023-05-10T09:03:12;22.30;1.00
6307;DHT22;3186;54.062;9.962;2023-05-10T09:05:38;22.50;1.00
6307;DHT22;3186;54.062;9.962;2023-05-10T09:08:06;22.50;1.00
6307;DHT22;3186;54.062;9.962;2023-05-10T09:10:32;22.60;1.00
6307;DHT22;3186;54.062;9.962;2023-05-10T09:12:58;22.70;1.00
6307;DHT22;3186;54.062;9.962;2023-05-10T09:15:24;22.70;1.00
6307;DHT22;3186;54.062;9.962;2023-05-10T09:17:50;22.20;1.00
6307;DHT22;3186;54.062;9.962;2023-05-10T09:20:16;22.30;1.00
6307;DHT22;3186;54.062;9.962;2023-05-10T09:22:43;22.90;1.00
6307;DHT22;3186;54.062;9.962;2023-05-10T09:25:14;22.90;1.00
6307;DHT22;3186;54.062;9.962;2023-05-10T09:27:44;22.30;1.00
6307;DHT22;3186;54.062;9.962;2023-05-10T09:30:23;22.60;1.00
6307;DHT22;3186;54.062;9.962;2023-05-10T09:32:50;22.60;1.00
6307;DHT22;3186;54.062;9.962;2023-05-10T09:35:17;22.60;1.00
6307;DHT22;3186;54.062;9.962;2023-05-10T09:37:45;22.40;1.00
6307;DHT22;3186;54.062;9.962;2023-05-10T09:40:15;22.80;1.00
6307;DHT22;3186;54.062;9.962;2023-05-10T09:45:30;22.80;1.00
6307;DHT22;3186;54.062;9.962;2023-05-10T09:47:57;22.80;1.00
6307;DHT22;3186;54.062;9.962;2023-05-10T09:50:24;22.80;1.00
6307;DHT22;3186;54.062;9.962;2023-05-10T09:53:03;23.10;1.00
6307;DHT22;3186;54.062;9.962;2023-05-10T09:55:40;22.30;1.00
6307;DHT22;3186;54.062;9.962;2023-05-10T09:58:06;22.70;1.00
6307;DHT22;3186;54.062;9.962;2023-05-10T10:00:40;22.30;1.00
6307;DHT22;3186;54.062;9.962;2023-05-10T10:03:07;22.50;1.00
6307;DHT22;3186;54.062;9.962;2023-05-10T10:05:40;22.70;1.00
6307;DHT22;3186;54.062;9.962;2023-05-10T10:08:06;22.60;1.00
6307;DHT22;3186;54.062;9.962;2023-05-10T10:10:33;22.60;1.00
6307;DHT22;3186;54.062;9.962;2023-05-10T10:12:59;22.70;1.00
6307;DHT22;3186;54.062;9.962;2023-05-10T10:15:26;22.80;1.00
6307;DHT22;3186;54.062;9.962;2023-05-10T10:17:52;22.60;1.00
6307;DHT22;3186;54.062;9.962;2023-05-10T10:20:20;22.60;1.00
6307;DHT22;3186;54.062;9.962;2023-05-10T10:22:46;22.20;1.00
6307;DHT22;3186;54.062;9.962;2023-05-10T10:25:15;22.20;1.00
6307;DHT22;3186;54.062;9.962;2023-05-10T10:36:12;22.70;1.00
6307;DHT22;3186;54.062;9.962;2023-05-10T10:41:34;22.90;1.00
6307;DHT22;3186;54.062;9.962;2023-05-10T10:52:27;22.40;1.00
6307;DHT22;3186;54.062;9.962;2023-05-10T10:54:59;22.20;1.00
6307;DHT22;3186;54.062;9.962;2023-05-10T10:57:26;22.40;1.00
6307;DHT22;3186;54.062;9.962;2023-05-10T11:00:22;22.80;1.00
6307;DHT22;3186;54.062;9.962;2023-05-10T11:02:50;22.60;1.00
6307;DHT22;3186;54.062;9.962;2023-05-10T11:08:19;22.30;1.00
6307;DHT22;3186;54.062;9.962;2023-05-10T11:13:31;22.40;1.00
6307;DHT22;3186;54.062;9.962;2023-05-10T11:15:58;22.50;1.00
6307;DHT22;3186;54.062;9.962;2023-05-10T11:18:27;22.10;1.00
6307;DHT22;3186;54.062;9.962;2023-05-10T11:21:00;22.40;1.00
6307;DHT22;3186;54.062;9.962;2023-05-10T11:23:47;22.60;1.00
6307;DHT22;3186;54.062;9.962;2023-05-10T11:26:13;22.60;1.00
6307;DHT22;3186;54.062;9.962;2023-05-10T11:28:44;22.40;1.00
6307;DHT22;3186;54.062;9.962;2023-05-10T11:31:13;22.30;1.00
6307;DHT22;3186;54.062;9.962;2023-05-10T11:33:46;22.30;1.00
6307;DHT22;3186;54.062;9.962;2023-05-10T11:38:52;21.90;1.00
6307;DHT22;3186;54.062;9.962;2023-05-10T11:41:19;22.00;1.00
6307;DHT22;3186;54.062;9.962;2023-05-10T11:43:49;22.00;1.00
6307;DHT22;3186;54.062;9.962;2023-05-10T11:46:15;21.80;1.00
6307;DHT22;3186;54.062;9.962;2023-05-10T11:48:42;21.50;1.00
6307;DHT22;3186;54.062;9.962;2023-05-10T11:51:09;21.40;1.00
6307;DHT22;3186;54.062;9.962;2023-05-10T11:53:35;21.40;1.00
6307;DHT22;3186;54.062;9.962;2023-05-10T11:56:11;21.40;1.00
6307;DHT22;3186;54.062;9.962;2023-05-10T11:58:38;21.40;1.00
6307;DHT22;3186;54.062;9.962;2023-05-10T12:01:06;21.30;1.00
6307;DHT22;3186;54.062;9.962;2023-05-10T12:03:33;21.10;1.00
6307;DHT22;3186;54.062;9.962;2023-05-10T12:06:00;21.00;1.00
6307;DHT22;3186;54.062;9.962;2023-05-10T12:08:28;21.00;1.00
6307;DHT22;3186;54.062;9.962;2023-05-10T12:11:06;21.00;1.00
6307;DHT22;3186;54.062;9.962;2023-05-10T12:13:32;21.00;1.00
6307;DHT22;3186;54.062;9.962;2023-05-10T12:15:58;20.90;1.00
6307;DHT22;3186;54.062;9.962;2023-05-10T12:18:24;20.60;1.00
6307;DHT22;3186;54.062;9.962;2023-05-10T12:20:54;20.80;1.00
6307;DHT22;3186;54.062;9.962;2023-05-10T12:23:20;20.80;1.00
6307;DHT22;3186;54.062;9.962;2023-05-10T12:25:46;20.50;2.50
6307;DHT22;3186;54.062;9.962;2023-05-10T12:28:12;20.60;1.00
6307;DHT22;3186;54.062;9.962;2023-05-10T12:30:39;20.40;4.90
6307;DHT22;3186;54.062;9.962;2023-05-10T12:33:10;20.40;1.00
6307;DHT22;3186;54.062;9.962;2023-05-10T12:38:25;20.60;1.00
6307;DHT22;3186;54.062;9.962;2023-05-10T12:40:52;20.50;1.00
6307;DHT22;3186;54.062;9.962;2023-05-10T12:43:17;20.60;1.00
6307;DHT22;3186;54.062;9.962;2023-05-10T12:45:43;20.60;1.00
6307;DHT22;3186;54.062;9.962;2023-05-10T12:48:13;20.60;1.00
6307;DHT22;3186;54.062;9.962;2023-05-10T12:50:39;20.50;9.70
6307;DHT22;3186;54.062;9.962;2023-05-10T12:53:05;20.20;6.40
6307;DHT22;3186;54.062;9.962;2023-05-10T12:55:30;19.80;17.80
6307;DHT22;3186;54.062;9.962;2023-05-10T12:57:57;19.90;14.10
6307;DHT22;3186;54.062;9.962;2023-05-10T13:00:23;20.10;18.00
6307;DHT22;3186;54.062;9.962;2023-05-10T13:02:49;19.90;29.90
6307;DHT22;3186;54.062;9.962;2023-05-10T13:05:14;19.70;25.80
6307;DHT22;3186;54.062;9.962;2023-05-10T13:07:40;19.90;24.70
6307;DHT22;3186;54.062;9.962;2023-05-10T13:10:06;20.00;24.10
6307;DHT22;3186;54.062;9.962;2023-05-10T13:12:33;20.10;18.40
6307;DHT22;3186;54.062;9.962;2023-05-10T13:14:59;20.10;20.60
6307;DHT22;3186;54.062;9.962;2023-05-10T13:17:25;19.80;28.90
6307;DHT22;3186;54.062;9.962;2023-05-10T13:19:51;20.00;21.00
6307;DHT22;3186;54.062;9.962;2023-05-10T13:22:17;20.00;25.40
6307;DHT22;3186;54.062;9.962;2023-05-10T13:24:43;19.90;29.80
6307;DHT22;3186;54.062;9.962;2023-05-10T13:27:08;19.90;25.50
6307;DHT22;3186;54.062;9.962;2023-05-10T13:29:34;19.80;29.70
6307;DHT22;3186;54.062;9.962;2023-05-10T13:32:00;20.00;24.10
6307;DHT22;3186;54.062;9.962;2023-05-10T13:34:26;19.70;25.50
6307;DHT22;3186;54.062;9.962;2023-05-10T13:36:53;19.70;29.00
6307;DHT22;3186;54.062;9.962;2023-05-10T13:39:20;19.80;36.50
6307;DHT22;3186;54.062;9.962;2023-05-10T13:41:46;19.80;39.60
6307;DHT22;3186;54.062;9.962;2023-05-10T13:44:13;20.00;36.30
6307;DHT22;3186;54.062;9.962;2023-05-10T13:46:42;20.10;41.10
6307;DHT22;3186;54.062;9.962;2023-05-10T13:49:09;19.90;36.50
6307;DHT22;3186;54.062;9.962;2023-05-10T13:51:35;19.90;46.80
6307;DHT22;3186;54.062;9.962;2023-05-10T13:54:02;20.00;35.50
6307;DHT22;3186;54.062;9.962;2023-05-10T13:56:28;20.20;33.00
6307;DHT22;3186;54.062;9.962;2023-05-10T13:58:54;20.30;29.50
6307;DHT22;3186;54.062;9.962;2023-05-10T14:01:19;20.30;28.70
6307;DHT22;3186;54.062;9.962;2023-05-10T14:03:45;20.20;31.00
6307;DHT22;3186;54.062;9.962;2023-05-10T14:06:13;20.30;31.70
6307;DHT22;3186;54.062;9.962;2023-05-10T14:08:38;20.30;33.70
6307;DHT22;3186;54.062;9.962;2023-05-10T14:11:04;20.30;30.00
6307;DHT22;3186;54.062;9.962;2023-05-10T14:13:30;20.30;47.10
6307;DHT22;3186;54.062;9.962;2023-05-10T14:15:56;20.20;36.50
6307;DHT22;3186;54.062;9.962;2023-05-10T14:18:22;20.20;32.90
6307;DHT22;3186;54.062;9.962;2023-05-10T14:20:48;20.30;44.60
6307;DHT22;3186;54.062;9.962;2023-05-10T14:23:14;20.10;43.50
6307;DHT22;3186;54.062;9.962;2023-05-10T14:25:40;20.20;33.40
6307;DHT22;3186;54.062;9.962;2023-05-10T14:28:06;20.20;32.90
6307;DHT22;3186;54.062;9.962;2023-05-10T14:30:32;20.40;32.90
6307;DHT22;3186;54.062;9.962;2023-05-10T14:33:01;20.10;67.70
6307;DHT22;3186;54.062;9.962;2023-05-10T14:35:27;20.10;42.90
6307;DHT22;3186;54.062;9.962;2023-05-10T14:37:53;20.30;37.90
6307;DHT22;3186;54.062;9.962;2023-05-10T14:40:19;20.40;36.90
6307;DHT22;3186;54.062;9.962;2023-05-10T14:42:45;20.50;34.70
6307;DHT22;3186;54.062;9.962;2023-05-10T14:45:11;20.50;40.00
6307;DHT22;3186;54.062;9.962;2023-05-10T14:47:37;20.30;38.60
6307;DHT22;3186;54.062;9.962;2023-05-10T14:50:03;20.30;50.80
6307;DHT22;3186;54.062;9.962;2023-05-10T14:52:29;20.40;43.60
6307;DHT22;3186;54.062;9.962;2023-05-10T14:54:55;20.50;38.90
6307;DHT22;3186;54.062;9.962;2023-05-10T14:57:21;20.70;35.80
6307;DHT22;3186;54.062;9.962;2023-05-10T14:59:47;20.70;33.50
6307;DHT22;3186;54.062;9.962;2023-05-10T15:02:13;20.70;32.20
6307;DHT22;3186;54.062;9.962;2023-05-10T15:04:39;20.80;32.50
6307;DHT22;3186;54.062;9.962;2023-05-10T15:07:05;20.70;30.90
6307;DHT22;3186;54.062;9.962;2023-05-10T15:09:31;20.90;29.00
6307;DHT22;3186;54.062;9.962;2023-05-10T15:11:57;20.90;28.50
6307;DHT22;3186;54.062;9.962;2023-05-10T15:14:22;20.90;30.00
6307;DHT22;3186;54.062;9.962;2023-05-10T15:16:49;20.90;27.30
6307;DHT22;3186;54.062;9.962;2023-05-10T15:19:14;20.90;27.10
6307;DHT22;3186;54.062;9.962;2023-05-10T15:21:40;20.90;26.40
6307;DHT22;3186;54.062;9.962;2023-05-10T15:24:08;21.00;29.60
6307;DHT22;3186;54.062;9.962;2023-05-10T15:26:35;20.90;27.20
6307;DHT22;3186;54.062;9.962;2023-05-10T15:29:01;20.80;28.20
6307;DHT22;3186;54.062;9.962;2023-05-10T15:31:26;20.80;28.60
6307;DHT22;3186;54.062;9.962;2023-05-10T15:33:57;20.80;25.60
6307;DHT22;3186;54.062;9.962;2023-05-10T15:36:24;20.80;27.30
6307;DHT22;3186;54.062;9.962;2023-05-10T15:38:49;20.80;27.10
6307;DHT22;3186;54.062;9.962;2023-05-10T15:41:15;20.80;28.10
6307;DHT22;3186;54.062;9.962;2023-05-10T15:43:41;20.60;28.20
6307;DHT22;3186;54.062;9.962;2023-05-10T15:46:07;20.80;27.80
6307;DHT22;3186;54.062;9.962;2023-05-10T15:48:33;20.80;27.90
6307;DHT22;3186;54.062;9.962;2023-05-10T15:50:59;20.80;27.00
6307;DHT22;3186;54.062;9.962;2023-05-10T15:53:24;20.70;28.60
6307;DHT22;3186;54.062;9.962;2023-05-10T15:55:50;20.60;36.70
6307;DHT22;3186;54.062;9.962;2023-05-10T15:58:16;20.70;28.50
6307;DHT22;3186;54.062;9.962;2023-05-10T16:00:42;20.80;27.40
6307;DHT22;3186;54.062;9.962;2023-05-10T16:03:07;20.80;27.80
6307;DHT22;3186;54.062;9.962;2023-05-10T16:05:33;20.80;25.10
6307;DHT22;3186;54.062;9.962;2023-05-10T16:08:02;20.90;26.80
6307;DHT22;3186;54.062;9.962;2023-05-10T16:10:31;20.90;27.60
6307;DHT22;3186;54.062;9.962;2023-05-10T16:12:57;20.90;25.80
6307;DHT22;3186;54.062;9.962;2023-05-10T16:15:23;21.00;26.50
6307;DHT22;3186;54.062;9.962;2023-05-10T16:17:49;21.00;24.20
6307;DHT22;3186;54.062;9.962;2023-05-10T16:20:15;20.90;22.10
6307;DHT22;3186;54.062;9.962;2023-05-10T16:22:41;21.00;22.40
6307;DHT22;3186;54.062;9.962;2023-05-10T16:25:09;21.00;23.10
6307;DHT22;3186;54.062;9.962;2023-05-10T16:27:35;21.00;21.20
6307;DHT22;3186;54.062;9.962;2023-05-10T16:30:01;21.00;21.60
6307;DHT22;3186;54.062;9.962;2023-05-10T16:32:27;21.00;21.90
6307;DHT22;3186;54.062;9.962;2023-05-10T16:34:53;21.00;23.70
6307;DHT22;3186;54.062;9.962;2023-05-10T16:37:19;20.90;23.20
6307;DHT22;3186;54.062;9.962;2023-05-10T16:39:45;21.00;20.80
6307;DHT22;3186;54.062;9.962;2023-05-10T16:42:11;20.90;20.90
6307;DHT22;3186;54.062;9.962;2023-05-10T16:44:36;21.00;21.70
6307;DHT22;3186;54.062;9.962;2023-05-10T16:47:02;20.90;22.60
6307;DHT22;3186;54.062;9.962;2023-05-10T16:49:28;20.90;20.90
6307;DHT22;3186;54.062;9.962;2023-05-10T16:51:54;20.90;20.60
6307;DHT22;3186;54.062;9.962;2023-05-10T16:54:20;20.80;21.90
6307;DHT22;3186;54.062;9.962;2023-05-10T16:56:46;20.80;21.50
6307;DHT22;3186;54.062;9.962;2023-05-10T16:59:12;20.80;20.80
6307;DHT22;3186;54.062;9.962;2023-05-10T17:01:38;20.80;22.20